createdAt,value
2016-12-22T00:00:53.523Z,0
2016-12-22T00:02:03.820Z,0
2016-12-22T00:03:14.121Z,0
2016-12-22T00:04:24.073Z,0
2016-12-22T00:05:34.028Z,0
2016-12-22T00:06:43.980Z,0
2016-12-22T00:07:53.944Z,0
2016-12-22T00:09:04.220Z,0
2016-12-22T00:10:14.194Z,0
2016-12-22T00:11:24.147Z,0
2016-12-22T00:12:33.792Z,0
2016-12-22T00:13:43.180Z,0
2016-12-22T00:14:53.139Z,0
2016-12-22T00:16:03.097Z,0
2016-12-22T00:17:13.402Z,0
2016-12-22T00:18:23.363Z,0
2016-12-22T00:19:33.623Z,0
2016-12-22T00:20:43.260Z,0
2016-12-22T00:21:53.532Z,0
2016-12-22T00:23:03.792Z,0
2016-12-22T00:24:13.766Z,0
2016-12-22T00:25:24.028Z,0
2016-12-22T00:26:33.977Z,0
2016-12-22T00:27:44.217Z,0
2016-12-22T00:28:54.164Z,0
2016-12-22T00:30:04.438Z,0
2016-12-22T00:31:14.380Z,0
2016-12-22T00:32:24.646Z,0
2016-12-22T00:33:34.803Z,0
2016-12-22T00:34:44.153Z,0
2016-12-22T00:35:54.102Z,0
2016-12-22T00:37:04.067Z,0
2016-12-22T00:38:14.031Z,0
2016-12-22T00:39:24.304Z,0
2016-12-22T00:40:34.240Z,0
2016-12-22T00:41:44.188Z,0
2016-12-22T00:42:54.140Z,0
2016-12-22T00:44:03.791Z,0
2016-12-22T00:45:13.759Z,0
2016-12-22T00:46:24.018Z,0
2016-12-22T00:47:33.382Z,0
2016-12-22T00:48:43.032Z,0
2016-12-22T00:49:53.289Z,0
2016-12-22T00:51:03.541Z,0
2016-12-22T00:52:13.814Z,0
2016-12-22T00:53:23.456Z,0
2016-12-22T00:54:33.411Z,0
2016-12-22T00:55:43.373Z,0
2016-12-22T00:56:53.341Z,0
2016-12-22T00:58:03.618Z,0
2016-12-22T00:59:13.884Z,0
2016-12-22T01:00:23.837Z,0
2016-12-22T01:01:34.107Z,0
2016-12-22T01:02:44.366Z,0
2016-12-22T01:03:54.630Z,0
2016-12-22T01:05:04.883Z,0
2016-12-22T01:06:14.838Z,0
2016-12-22T01:07:24.809Z,0
2016-12-22T01:08:35.072Z,0
2016-12-22T01:09:45.036Z,0
2016-12-22T01:10:54.361Z,0
2016-12-22T01:12:04.316Z,0
2016-12-22T01:13:14.269Z,0
2016-12-22T01:14:24.221Z,0
2016-12-22T01:15:34.486Z,0
2016-12-22T01:16:44.448Z,0
2016-12-22T01:17:53.804Z,0
2016-12-22T01:19:04.057Z,0
2016-12-22T01:20:13.718Z,0
2016-12-22T01:21:23.674Z,0
2016-12-22T01:22:33.932Z,0
2016-12-22T01:23:44.190Z,0
2016-12-22T01:24:53.833Z,0
2016-12-22T01:26:03.795Z,0
2016-12-22T01:27:14.073Z,0
2016-12-22T01:28:23.737Z,0
2016-12-22T01:29:34.003Z,0
2016-12-22T01:30:44.271Z,0
2016-12-22T01:31:54.544Z,0
2016-12-22T01:33:04.502Z,0
2016-12-22T01:34:14.464Z,0
2016-12-22T01:35:24.726Z,0
2016-12-22T01:36:34.681Z,0
2016-12-22T01:37:44.323Z,0
2016-12-22T01:38:53.967Z,0
2016-12-22T01:40:04.230Z,0
2016-12-22T01:41:14.492Z,0
2016-12-22T01:42:24.751Z,0
2016-12-22T01:43:34.701Z,0
2016-12-22T01:44:44.978Z,0
2016-12-22T01:45:55.238Z,0
2016-12-22T01:47:04.886Z,0
2016-12-22T01:48:14.524Z,0
2016-12-22T01:49:24.480Z,0
2016-12-22T01:50:34.428Z,0
2016-12-22T01:51:44.371Z,0
2016-12-22T01:52:54.643Z,0
2016-12-22T01:54:04.903Z,0
2016-12-22T01:55:14.851Z,0
2016-12-22T01:56:24.809Z,0
2016-12-22T01:57:34.765Z,0
2016-12-22T01:58:45.008Z,0
2016-12-22T01:59:55.251Z,0
2016-12-22T02:01:05.818Z,0
2016-12-22T02:02:16.076Z,0
2016-12-22T02:03:26.336Z,0
2016-12-22T02:04:36.288Z,0
2016-12-22T02:05:46.243Z,0
2016-12-22T02:06:55.884Z,0
2016-12-22T02:08:05.834Z,0
2016-12-22T02:09:16.089Z,0
2016-12-22T02:10:26.342Z,0
2016-12-22T02:11:35.977Z,0
2016-12-22T02:12:45.625Z,0
2016-12-22T02:13:55.885Z,0
2016-12-22T02:15:05.535Z,0
2016-12-22T02:16:15.801Z,0
2016-12-22T02:17:26.051Z,0
2016-12-22T02:18:35.993Z,0
2016-12-22T02:19:45.900Z,0
2016-12-22T02:20:56.152Z,0
2016-12-22T02:22:06.105Z,0
2016-12-22T02:23:16.371Z,0
2016-12-22T02:24:26.007Z,0
2016-12-22T02:25:35.964Z,0
2016-12-22T02:26:45.603Z,0
2016-12-22T02:27:55.904Z,0
2016-12-22T02:29:06.153Z,0
2016-12-22T02:30:16.099Z,0
2016-12-22T02:31:26.364Z,0
2016-12-22T02:32:36.617Z,0
2016-12-22T02:33:46.563Z,0
2016-12-22T02:34:56.185Z,0
2016-12-22T02:36:05.814Z,0
2016-12-22T02:37:15.766Z,0
2016-12-22T02:38:26.038Z,0
2016-12-22T02:39:35.996Z,0
2016-12-22T02:40:45.987Z,0
2016-12-22T02:41:56.249Z,0
2016-12-22T02:43:06.515Z,0
2016-12-22T02:44:16.774Z,0
2016-12-22T02:45:26.732Z,0
2016-12-22T02:46:36.700Z,0
2016-12-22T02:47:46.037Z,0
2016-12-22T02:48:55.673Z,0
2016-12-22T02:50:05.933Z,0
2016-12-22T02:51:16.190Z,0
2016-12-22T02:52:26.468Z,0
2016-12-22T02:53:36.159Z,0
2016-12-22T02:54:46.417Z,0
2016-12-22T02:55:56.372Z,0
2016-12-22T02:57:06.021Z,0
2016-12-22T02:58:15.656Z,0
2016-12-22T02:59:25.646Z,0
2016-12-22T03:00:35.592Z,0
2016-12-22T03:01:45.249Z,0
2016-12-22T03:02:55.237Z,0
2016-12-22T03:04:05.492Z,0
2016-12-22T03:05:15.444Z,0
2016-12-22T03:06:25.712Z,0
2016-12-22T03:07:35.659Z,0
2016-12-22T03:08:45.912Z,0
2016-12-22T03:09:55.550Z,0
2016-12-22T03:11:05.501Z,0
2016-12-22T03:12:15.479Z,0
2016-12-22T03:13:25.479Z,0
2016-12-22T03:14:35.729Z,0
2016-12-22T03:15:45.675Z,0
2016-12-22T03:16:55.623Z,0
2016-12-22T03:18:05.262Z,0
2016-12-22T03:19:15.211Z,0
2016-12-22T03:20:24.942Z,0
2016-12-22T03:21:35.217Z,0
2016-12-22T03:22:45.146Z,0
2016-12-22T03:23:55.102Z,0
2016-12-22T03:25:05.360Z,0
2016-12-22T03:26:15.623Z,0
2016-12-22T03:27:25.575Z,0
2016-12-22T03:28:35.850Z,0
2016-12-22T03:29:46.112Z,0
2016-12-22T03:30:56.055Z,0
2016-12-22T03:32:05.703Z,0
2016-12-22T03:33:15.642Z,0
2016-12-22T03:34:25.610Z,0
2016-12-22T03:35:35.559Z,0
2016-12-22T03:36:45.825Z,0
2016-12-22T03:37:55.766Z,0
2016-12-22T03:39:05.399Z,0
2016-12-22T03:40:15.651Z,0
2016-12-22T03:41:25.311Z,0
2016-12-22T03:42:35.264Z,0
2016-12-22T03:43:45.533Z,0
2016-12-22T03:44:55.798Z,0
2016-12-22T03:46:04.803Z,0
2016-12-22T03:47:14.451Z,0
2016-12-22T03:48:24.709Z,0
2016-12-22T03:49:34.668Z,0
2016-12-22T03:50:44.927Z,0
2016-12-22T03:51:55.183Z,0
2016-12-22T03:53:04.510Z,0
2016-12-22T03:54:14.473Z,0
2016-12-22T03:55:24.751Z,0
2016-12-22T03:56:35.001Z,0
2016-12-22T03:57:44.959Z,0
2016-12-22T03:58:54.907Z,0
2016-12-22T04:00:05.189Z,0
2016-12-22T04:01:15.147Z,0
2016-12-22T04:02:25.438Z,0
2016-12-22T04:03:35.375Z,0
2016-12-22T04:04:45.039Z,0
2016-12-22T04:05:54.683Z,0
2016-12-22T04:07:04.940Z,0
2016-12-22T04:08:15.231Z,0
2016-12-22T04:09:25.484Z,0
2016-12-22T04:10:35.125Z,0
2016-12-22T04:11:45.071Z,0
2016-12-22T04:12:55.022Z,0
2016-12-22T04:14:04.662Z,0
2016-12-22T04:15:14.927Z,0
2016-12-22T04:16:25.180Z,0
2016-12-22T04:17:34.844Z,0
2016-12-22T04:18:44.780Z,0
2016-12-22T04:19:55.026Z,0
2016-12-22T04:21:04.974Z,0
2016-12-22T04:22:14.914Z,0
2016-12-22T04:23:24.549Z,0
2016-12-22T04:24:34.527Z,0
2016-12-22T04:25:43.854Z,0
2016-12-22T04:26:53.189Z,0
2016-12-22T04:28:03.439Z,0
2016-12-22T04:29:13.397Z,0
2016-12-22T04:30:23.336Z,0
2016-12-22T04:31:33.583Z,0
2016-12-22T04:32:43.533Z,0
2016-12-22T04:33:53.477Z,0
2016-12-22T04:35:03.446Z,0
2016-12-22T04:36:13.694Z,0
2016-12-22T04:37:23.695Z,0
2016-12-22T04:38:33.947Z,0
2016-12-22T04:39:43.582Z,0
2016-12-22T04:40:53.526Z,0
2016-12-22T04:42:03.775Z,0
2016-12-22T04:43:13.727Z,0
2016-12-22T04:44:23.679Z,0
2016-12-22T04:45:33.320Z,0
2016-12-22T04:46:43.554Z,0
2016-12-22T04:47:53.493Z,0
2016-12-22T04:49:03.736Z,0
2016-12-22T04:50:13.670Z,0
2016-12-22T04:51:23.945Z,0
2016-12-22T04:52:33.269Z,0
2016-12-22T04:53:43.234Z,0
2016-12-22T04:54:52.870Z,0
2016-12-22T04:56:03.110Z,0
2016-12-22T04:57:12.751Z,0
2016-12-22T04:58:22.416Z,0
2016-12-22T04:59:32.189Z,0
2016-12-22T05:00:42.153Z,0
2016-12-22T05:01:52.095Z,0
2016-12-22T05:03:01.730Z,0
2016-12-22T05:04:11.652Z,0
2016-12-22T05:05:21.596Z,0
2016-12-22T05:06:31.859Z,0
2016-12-22T05:07:42.133Z,0
2016-12-22T05:08:51.766Z,0
2016-12-22T05:10:01.407Z,0
2016-12-22T05:11:11.365Z,0
2016-12-22T05:12:21.611Z,0
2016-12-22T05:13:31.571Z,0
2016-12-22T05:14:41.817Z,0
2016-12-22T05:15:51.758Z,0
2016-12-22T05:17:02.000Z,0
2016-12-22T05:18:11.963Z,0
2016-12-22T05:19:21.595Z,0
2016-12-22T05:20:31.235Z,0
2016-12-22T05:21:41.171Z,0
2016-12-22T05:22:51.114Z,0
2016-12-22T05:24:00.755Z,0
2016-12-22T05:25:11.008Z,0
2016-12-22T05:26:20.960Z,0
2016-12-22T05:27:31.229Z,0
2016-12-22T05:28:40.860Z,0
2016-12-22T05:29:51.107Z,0
2016-12-22T05:31:01.047Z,0
2016-12-22T05:32:11.216Z,0
2016-12-22T05:33:21.459Z,0
2016-12-22T05:34:31.140Z,0
2016-12-22T05:35:41.411Z,0
2016-12-22T05:36:51.357Z,0
2016-12-22T05:38:01.321Z,0
2016-12-22T05:39:11.261Z,0
2016-12-22T05:40:21.198Z,0
2016-12-22T05:41:31.133Z,0
2016-12-22T05:42:41.071Z,0
2016-12-22T05:43:51.009Z,0
2016-12-22T05:45:00.982Z,0
2016-12-22T05:46:11.239Z,0
2016-12-22T05:47:20.864Z,0
2016-12-22T05:48:30.800Z,0
2016-12-22T05:49:40.436Z,0
2016-12-22T05:50:50.378Z,0
2016-12-22T05:52:00.362Z,0
2016-12-22T05:53:10.003Z,0
2016-12-22T05:54:19.645Z,0
2016-12-22T05:55:29.600Z,0
2016-12-22T05:56:39.862Z,0
2016-12-22T05:57:49.181Z,0
2016-12-22T05:58:58.810Z,0
2016-12-22T06:00:08.454Z,0
2016-12-22T06:01:18.432Z,0
2016-12-22T06:02:28.707Z,0
2016-12-22T06:03:38.655Z,0
2016-12-22T06:04:48.287Z,0
2016-12-22T06:05:58.553Z,0
2016-12-22T06:07:08.194Z,0
2016-12-22T06:08:18.465Z,0
2016-12-22T06:09:28.442Z,0
2016-12-22T06:10:38.703Z,0
2016-12-22T06:11:48.665Z,0
2016-12-22T06:12:59.921Z,0
2016-12-22T06:14:09.860Z,0
2016-12-22T06:15:19.796Z,0
2016-12-22T06:16:29.735Z,0
2016-12-22T06:17:39.671Z,0
2016-12-22T06:18:49.611Z,0
2016-12-22T06:20:00.010Z,0
2016-12-22T06:21:09.952Z,0
2016-12-22T06:22:19.914Z,0
2016-12-22T06:23:29.571Z,0
2016-12-22T06:24:39.526Z,0
2016-12-22T06:25:48.867Z,0
2016-12-22T06:26:58.810Z,0
2016-12-22T06:28:08.756Z,0
2016-12-22T06:29:19.019Z,0
2016-12-22T06:30:28.970Z,0
2016-12-22T06:31:38.605Z,0
2016-12-22T06:32:48.252Z,0
2016-12-22T06:33:58.193Z,0
2016-12-22T06:35:08.142Z,0
2016-12-22T06:36:17.777Z,0
2016-12-22T06:37:27.415Z,0
2016-12-22T06:38:37.393Z,0
2016-12-22T06:39:47.336Z,0
2016-12-22T06:40:57.288Z,0
2016-12-22T06:42:07.521Z,0
2016-12-22T06:43:17.774Z,0
2016-12-22T06:44:27.722Z,0
2016-12-22T06:45:37.365Z,0
2016-12-22T06:46:47.317Z,0
2016-12-22T06:47:57.268Z,0
2016-12-22T06:49:07.218Z,0
2016-12-22T06:50:17.151Z,0
2016-12-22T06:51:27.105Z,0
2016-12-22T06:52:37.363Z,0
2016-12-22T06:53:47.022Z,0
2016-12-22T06:54:57.292Z,0
2016-12-22T06:56:06.331Z,0
2016-12-22T06:57:15.358Z,0
2016-12-22T06:58:25.290Z,0
2016-12-22T06:59:35.539Z,0
2016-12-22T07:00:45.804Z,0
2016-12-22T07:01:55.496Z,0
2016-12-22T07:03:05.124Z,0
2016-12-22T07:04:15.074Z,0
2016-12-22T07:05:24.741Z,0
2016-12-22T07:06:34.398Z,0
2016-12-22T07:07:44.668Z,0
2016-12-22T07:08:54.939Z,0
2016-12-22T07:10:04.585Z,0
2016-12-22T07:11:13.616Z,0
2016-12-22T07:12:23.886Z,0
2016-12-22T07:13:33.854Z,0
2016-12-22T07:14:44.143Z,0
2016-12-22T07:15:54.391Z,0
2016-12-22T07:17:04.353Z,0
2016-12-22T07:18:14.301Z,5
2016-12-22T07:19:23.931Z,5
2016-12-22T07:20:33.877Z,5
2016-12-22T07:21:43.855Z,5
2016-12-22T07:22:54.101Z,5
2016-12-22T07:24:04.362Z,5
2016-12-22T07:25:14.321Z,5
2016-12-22T07:26:23.963Z,5
2016-12-22T07:27:34.225Z,5
2016-12-22T07:28:44.477Z,5
2016-12-22T07:29:54.434Z,5
2016-12-22T07:31:04.370Z,5
2016-12-22T07:32:14.626Z,5
2016-12-22T07:33:24.904Z,10
2016-12-22T07:34:35.170Z,10
2016-12-22T07:35:45.427Z,10
2016-12-22T07:36:55.371Z,10
2016-12-22T07:38:04.999Z,10
2016-12-22T07:39:14.975Z,10
2016-12-22T07:40:24.949Z,10
2016-12-22T07:41:35.216Z,10
2016-12-22T07:42:45.205Z,15
2016-12-22T07:43:55.208Z,15
2016-12-22T07:45:05.173Z,15
2016-12-22T07:46:15.456Z,15
2016-12-22T07:47:25.096Z,15
2016-12-22T07:48:34.724Z,15
2016-12-22T07:49:44.061Z,15
2016-12-22T07:50:54.018Z,15
2016-12-22T07:52:04.289Z,20
2016-12-22T07:53:14.242Z,20
2016-12-22T07:54:23.870Z,20
2016-12-22T07:55:34.141Z,20
2016-12-22T07:56:44.410Z,20
2016-12-22T07:57:54.675Z,20
2016-12-22T07:59:04.639Z,20
2016-12-22T08:00:14.706Z,20
2016-12-22T08:01:24.417Z,15
2016-12-22T08:02:34.288Z,15
2016-12-22T08:03:43.981Z,15
2016-12-22T08:04:53.945Z,15
2016-12-22T08:06:04.249Z,15
2016-12-22T08:07:14.544Z,15
2016-12-22T08:08:24.821Z,15
2016-12-22T08:09:34.477Z,15
2016-12-22T08:10:44.135Z,15
2016-12-22T08:11:54.457Z,15
2016-12-22T08:13:04.130Z,15
2016-12-22T08:14:14.425Z,15
2016-12-22T08:15:24.403Z,15
2016-12-22T08:16:34.665Z,15
2016-12-22T08:17:44.652Z,15
2016-12-22T08:18:54.821Z,15
2016-12-22T08:20:04.763Z,15
2016-12-22T08:21:14.453Z,15
2016-12-22T08:22:24.421Z,15
2016-12-22T08:23:34.689Z,15
2016-12-22T08:24:44.691Z,20
2016-12-22T08:25:54.322Z,20
2016-12-22T08:27:03.969Z,20
2016-12-22T08:28:13.907Z,20
2016-12-22T08:29:23.861Z,20
2016-12-22T08:30:33.850Z,20
2016-12-22T08:31:44.154Z,20
2016-12-22T08:32:54.429Z,20
2016-12-22T08:34:04.716Z,20
2016-12-22T08:35:14.668Z,20
2016-12-22T08:36:24.616Z,20
2016-12-22T08:37:34.576Z,25
2016-12-22T08:38:44.223Z,25
2016-12-22T08:39:53.855Z,25
2016-12-22T08:41:03.220Z,25
2016-12-22T08:42:13.489Z,25
2016-12-22T08:43:23.429Z,25
2016-12-22T08:44:33.371Z,25
2016-12-22T08:45:43.029Z,25
2016-12-22T08:46:53.319Z,25
2016-12-22T08:48:03.590Z,25
2016-12-22T08:49:13.545Z,25
2016-12-22T08:50:23.507Z,25
2016-12-22T08:51:33.159Z,30
2016-12-22T08:52:42.804Z,30
2016-12-22T08:53:52.444Z,30
2016-12-22T08:55:02.711Z,25
2016-12-22T08:56:12.661Z,25
2016-12-22T08:57:22.615Z,30
2016-12-22T08:58:32.240Z,30
2016-12-22T08:59:42.494Z,30
2016-12-22T09:00:52.124Z,30
2016-12-22T09:02:02.385Z,30
2016-12-22T09:03:12.317Z,30
2016-12-22T09:04:22.279Z,30
2016-12-22T09:05:32.532Z,30
2016-12-22T09:06:42.516Z,30
2016-12-22T09:07:52.458Z,25
2016-12-22T09:09:02.716Z,30
2016-12-22T09:10:13.073Z,30
2016-12-22T09:11:23.029Z,30
2016-12-22T09:12:32.368Z,30
2016-12-22T09:13:42.653Z,30
2016-12-22T09:14:52.919Z,30
2016-12-22T09:16:02.561Z,30
2016-12-22T09:17:12.836Z,30
2016-12-22T09:22:23.331Z,35
2016-12-22T09:23:33.630Z,35
2016-12-22T09:24:43.888Z,35
2016-12-22T09:25:53.222Z,35
2016-12-22T09:27:02.878Z,35
2016-12-22T09:28:13.146Z,35
2016-12-22T09:29:23.438Z,35
2016-12-22T09:30:33.697Z,35
2016-12-22T09:31:43.672Z,40
2016-12-22T09:32:53.933Z,35
2016-12-22T09:34:04.191Z,35
2016-12-22T09:35:14.469Z,40
2016-12-22T09:36:24.729Z,40
2016-12-22T09:37:34.983Z,40
2016-12-22T09:38:45.245Z,40
2016-12-22T09:39:54.581Z,45
2016-12-22T09:41:04.546Z,45
2016-12-22T09:42:14.803Z,45
2016-12-22T09:43:25.079Z,45
2016-12-22T09:44:35.024Z,45
2016-12-22T09:45:44.671Z,45
2016-12-22T09:46:54.915Z,50
2016-12-22T09:48:04.859Z,50
2016-12-22T09:49:15.120Z,55
2016-12-22T09:50:25.438Z,55
2016-12-22T09:51:36.006Z,55
2016-12-22T09:52:46.275Z,55
2016-12-22T09:53:56.547Z,55
2016-12-22T09:55:06.869Z,50
2016-12-22T09:56:17.134Z,45
2016-12-22T09:57:27.200Z,45
2016-12-22T09:58:36.848Z,45
2016-12-22T09:59:47.121Z,45
2016-12-22T10:00:56.768Z,45
2016-12-22T10:02:06.454Z,45
2016-12-22T10:03:16.092Z,45
2016-12-22T10:04:26.068Z,45
2016-12-22T10:05:36.038Z,45
2016-12-22T10:06:46.317Z,50
2016-12-22T10:07:56.337Z,50
2016-12-22T10:09:06.640Z,50
2016-12-22T10:10:16.583Z,45
2016-12-22T10:11:26.841Z,50
2016-12-22T10:12:37.106Z,50
2016-12-22T10:13:46.471Z,55
2016-12-22T10:14:56.718Z,55
2016-12-22T10:16:07.020Z,50
2016-12-22T10:17:17.375Z,55
2016-12-22T10:18:27.079Z,55
2016-12-22T10:19:37.119Z,55
2016-12-22T10:20:47.419Z,55
2016-12-22T10:21:57.426Z,55
2016-12-22T10:23:07.394Z,55
2016-12-22T10:24:17.694Z,55
2016-12-22T10:25:27.984Z,55
2016-12-22T10:26:37.670Z,55
2016-12-22T10:27:47.332Z,60
2016-12-22T10:28:57.302Z,60
2016-12-22T10:30:07.272Z,60
2016-12-22T10:31:17.528Z,65
2016-12-22T10:32:27.170Z,65
2016-12-22T10:33:37.445Z,65
2016-12-22T10:34:46.800Z,65
2016-12-22T10:35:56.446Z,65
2016-12-22T10:37:06.723Z,60
2016-12-22T10:38:16.965Z,65
2016-12-22T10:39:27.251Z,65
2016-12-22T10:40:37.203Z,65
2016-12-22T10:41:47.197Z,65
2016-12-22T10:42:56.528Z,65
2016-12-22T10:44:06.476Z,65
2016-12-22T10:45:16.432Z,65
2016-12-22T10:46:26.702Z,65
2016-12-22T10:47:36.671Z,65
2016-12-22T10:48:46.919Z,65
2016-12-22T10:49:56.572Z,65
2016-12-22T10:51:06.220Z,65
2016-12-22T10:52:16.162Z,65
2016-12-22T10:53:26.106Z,65
2016-12-22T10:54:36.057Z,65
2016-12-22T10:55:46.356Z,65
2016-12-22T10:56:56.305Z,65
2016-12-22T10:58:06.551Z,60
2016-12-22T10:59:16.191Z,65
2016-12-22T11:00:25.847Z,65
2016-12-22T11:01:36.097Z,65
2016-12-22T11:02:46.361Z,65
2016-12-22T11:03:56.331Z,65
2016-12-22T11:05:05.661Z,65
2016-12-22T11:06:15.649Z,60
2016-12-22T11:07:25.906Z,60
2016-12-22T11:08:34.919Z,60
2016-12-22T11:09:44.872Z,65
2016-12-22T11:10:54.509Z,60
2016-12-22T11:12:04.464Z,60
2016-12-22T11:13:14.416Z,60
2016-12-22T11:14:24.386Z,60
2016-12-22T11:15:34.677Z,55
2016-12-22T11:16:44.654Z,60
2016-12-22T11:17:54.945Z,60
2016-12-22T11:19:05.192Z,60
2016-12-22T11:20:15.140Z,60
2016-12-22T11:21:25.095Z,55
2016-12-22T11:22:35.031Z,55
2016-12-22T11:23:44.360Z,55
2016-12-22T11:24:54.619Z,55
2016-12-22T11:26:04.555Z,55
2016-12-22T11:27:14.815Z,60
2016-12-22T11:28:25.070Z,55
2016-12-22T11:29:35.071Z,55
2016-12-22T11:30:44.701Z,50
2016-12-22T11:31:54.651Z,50
2016-12-22T11:33:04.616Z,45
2016-12-22T11:34:13.973Z,45
2016-12-22T11:35:23.911Z,45
2016-12-22T11:36:34.167Z,45
2016-12-22T11:37:44.422Z,45
2016-12-22T11:38:54.385Z,45
2016-12-22T11:40:04.650Z,40
2016-12-22T11:41:14.626Z,40
2016-12-22T11:42:24.277Z,40
2016-12-22T11:43:33.897Z,35
2016-12-22T11:44:43.580Z,35
2016-12-22T11:45:53.550Z,40
2016-12-22T11:47:03.525Z,40
2016-12-22T11:48:13.807Z,35
2016-12-22T11:49:23.746Z,35
2016-12-22T11:50:33.712Z,35
2016-12-22T11:51:43.651Z,35
2016-12-22T11:52:53.359Z,35
2016-12-22T11:54:03.628Z,35
2016-12-22T11:55:13.580Z,40
2016-12-22T11:56:23.555Z,35
2016-12-22T11:57:33.515Z,35
2016-12-22T11:58:43.791Z,35
2016-12-22T11:59:53.776Z,35
2016-12-22T12:01:03.774Z,35
2016-12-22T12:02:13.731Z,35
2016-12-22T12:03:24.022Z,35
2016-12-22T12:04:34.270Z,35
2016-12-22T12:05:44.523Z,30
2016-12-22T12:06:54.822Z,35
2016-12-22T12:08:04.508Z,35
2016-12-22T12:09:14.930Z,35
2016-12-22T12:10:24.569Z,30
2016-12-22T12:11:34.849Z,30
2016-12-22T12:12:45.158Z,30
2016-12-22T12:13:55.157Z,30
2016-12-22T12:15:05.128Z,30
2016-12-22T12:16:15.405Z,30
2016-12-22T12:17:25.369Z,30
2016-12-22T12:18:35.654Z,30
2016-12-22T12:19:45.313Z,30
2016-12-22T12:20:55.293Z,30
2016-12-22T12:22:06.220Z,30
2016-12-22T12:23:15.556Z,30
2016-12-22T12:24:25.166Z,30
2016-12-22T12:25:35.151Z,30
2016-12-22T12:26:45.127Z,30
2016-12-22T12:27:55.078Z,30
2016-12-22T12:29:04.721Z,30
2016-12-22T12:30:14.354Z,30
2016-12-22T12:31:24.317Z,30
2016-12-22T12:32:34.273Z,30
2016-12-22T12:33:44.215Z,30
2016-12-22T12:34:53.548Z,30
2016-12-22T12:36:03.527Z,25
2016-12-22T12:37:13.781Z,25
2016-12-22T12:38:23.734Z,25
2016-12-22T12:39:33.725Z,25
2016-12-22T12:40:43.976Z,25
2016-12-22T12:41:53.928Z,25
2016-12-22T12:43:03.912Z,25
2016-12-22T12:44:13.871Z,25
2016-12-22T12:45:23.865Z,25
2016-12-22T12:46:34.126Z,25
2016-12-22T12:47:43.756Z,25
2016-12-22T12:48:54.025Z,25
2016-12-22T12:50:03.654Z,25
2016-12-22T12:51:13.972Z,25
2016-12-22T12:52:24.245Z,25
2016-12-22T12:53:33.902Z,20
2016-12-22T12:54:44.166Z,20
2016-12-22T12:55:54.431Z,20
2016-12-22T12:57:04.118Z,25
2016-12-22T12:58:13.766Z,20
2016-12-22T12:59:23.729Z,20
2016-12-22T13:00:33.369Z,20
2016-12-22T13:01:43.002Z,25
2016-12-22T13:02:52.965Z,25
2016-12-22T13:04:02.606Z,25
2016-12-22T13:05:12.537Z,25
2016-12-22T13:06:22.482Z,25
2016-12-22T13:07:32.748Z,25
2016-12-22T13:08:43.026Z,25
2016-12-22T13:09:52.989Z,20
2016-12-22T13:11:03.272Z,20
2016-12-22T13:12:13.215Z,20
2016-12-22T13:13:23.488Z,20
2016-12-22T13:14:33.133Z,20
2016-12-22T13:15:43.061Z,20
2016-12-22T13:16:52.711Z,20
2016-12-22T13:18:02.385Z,20
2016-12-22T13:19:12.043Z,20
2016-12-22T13:20:22.298Z,15
2016-12-22T13:21:32.542Z,15
2016-12-22T13:22:42.779Z,15
2016-12-22T13:23:52.737Z,15
2016-12-22T13:25:02.693Z,15
2016-12-22T13:26:12.321Z,15
2016-12-22T13:27:22.606Z,15
2016-12-22T13:28:32.546Z,15
2016-12-22T13:29:42.815Z,15
2016-12-22T13:30:52.441Z,15
2016-12-22T13:32:01.786Z,15
2016-12-22T13:33:11.758Z,15
2016-12-22T13:34:21.403Z,15
2016-12-22T13:35:31.669Z,15
2016-12-22T13:36:41.621Z,15
2016-12-22T13:37:51.880Z,15
2016-12-22T13:39:01.531Z,15
2016-12-22T13:40:11.488Z,15
2016-12-22T13:41:21.456Z,15
2016-12-22T13:42:31.413Z,15
2016-12-22T13:43:41.411Z,15
2016-12-22T13:44:51.035Z,15
2016-12-22T13:46:01.296Z,15
2016-12-22T13:47:11.258Z,15
2016-12-22T13:48:20.893Z,15
2016-12-22T13:49:30.256Z,15
2016-12-22T13:50:40.186Z,15
2016-12-22T13:51:49.805Z,15
2016-12-22T13:52:59.451Z,15
2016-12-22T13:54:09.113Z,15
2016-12-22T13:55:19.054Z,10
2016-12-22T13:56:29.304Z,10
2016-12-22T13:57:38.953Z,10
2016-12-22T13:58:49.221Z,10
2016-12-22T13:59:58.862Z,10
2016-12-22T14:01:08.495Z,10
2016-12-22T14:02:18.136Z,10
2016-12-22T14:03:28.393Z,10
2016-12-22T14:04:38.649Z,10
2016-12-22T14:05:47.979Z,10
2016-12-22T14:06:58.231Z,5
2016-12-22T14:08:08.181Z,5
2016-12-22T14:09:18.453Z,5
2016-12-22T14:10:28.139Z,5
2016-12-22T14:11:37.776Z,5
2016-12-22T14:12:47.727Z,5
2016-12-22T14:13:57.378Z,5
2016-12-22T14:15:07.329Z,5
2016-12-22T14:16:16.670Z,0
2016-12-22T14:17:26.007Z,0
2016-12-22T14:18:36.365Z,0
2016-12-22T14:19:46.325Z,0
2016-12-22T14:20:55.961Z,0
2016-12-22T14:22:04.985Z,0
2016-12-22T14:23:14.928Z,0
2016-12-22T14:24:24.550Z,0
2016-12-22T14:25:34.184Z,0
2016-12-22T14:26:44.160Z,0
2016-12-22T14:27:54.133Z,0
2016-12-22T14:29:04.073Z,0
2016-12-22T14:30:13.712Z,0
2016-12-22T14:31:23.333Z,0
2016-12-22T14:32:33.601Z,0
2016-12-22T14:33:43.560Z,0
2016-12-22T14:34:53.205Z,0
2016-12-22T14:36:02.837Z,0
2016-12-22T14:37:12.782Z,0
2016-12-22T14:38:22.758Z,0
2016-12-22T14:39:32.392Z,0
2016-12-22T14:40:42.371Z,0
2016-12-22T14:41:52.007Z,0
2016-12-22T14:43:01.646Z,0
2016-12-22T14:44:11.307Z,0
2016-12-22T14:45:20.464Z,0
2016-12-22T14:46:30.099Z,0
2016-12-22T14:47:40.047Z,0
2016-12-22T14:48:49.687Z,0
2016-12-22T14:49:59.932Z,0
2016-12-22T14:51:10.197Z,0
2016-12-22T14:52:19.527Z,0
2016-12-22T14:53:29.780Z,0
2016-12-22T14:54:39.412Z,0
2016-12-22T14:55:49.047Z,0
2016-12-22T14:56:58.988Z,0
2016-12-22T14:58:09.234Z,0
2016-12-22T14:59:19.093Z,0
2016-12-22T15:00:29.337Z,0
2016-12-22T15:01:39.585Z,0
2016-12-22T15:02:49.855Z,0
2016-12-22T15:03:59.513Z,0
2016-12-22T15:05:09.561Z,0
2016-12-22T15:06:19.503Z,0
2016-12-22T15:07:29.758Z,0
2016-12-22T15:08:39.717Z,0
2016-12-22T15:09:49.658Z,0
2016-12-22T15:10:59.603Z,0
2016-12-22T15:12:09.843Z,0
2016-12-22T15:13:20.096Z,0
2016-12-22T15:14:29.725Z,0
2016-12-22T15:15:40.000Z,0
2016-12-22T15:16:49.636Z,0
2016-12-22T15:17:59.867Z,0
2016-12-22T15:19:09.696Z,0
2016-12-22T15:20:19.633Z,0
2016-12-22T15:21:29.886Z,0
2016-12-22T15:22:39.529Z,0
2016-12-22T15:23:49.791Z,0
2016-12-22T15:25:00.032Z,0
2016-12-22T15:26:10.307Z,0
2016-12-22T15:27:20.269Z,0
2016-12-22T15:28:29.296Z,0
2016-12-22T15:29:39.534Z,0
2016-12-22T15:30:49.486Z,0
2016-12-22T15:31:59.123Z,0
2016-12-22T15:33:09.053Z,0
2016-12-22T15:34:18.996Z,0
2016-12-22T15:35:29.268Z,0
2016-12-22T15:36:39.520Z,0
2016-12-22T15:37:49.462Z,0
2016-12-22T15:38:59.711Z,0
2016-12-22T15:40:09.661Z,0
2016-12-22T15:41:19.918Z,0
2016-12-22T15:42:29.868Z,0
2016-12-22T15:43:40.112Z,0
2016-12-22T15:44:50.052Z,0
2016-12-22T15:45:59.676Z,0
2016-12-22T15:47:09.302Z,0
2016-12-22T15:48:19.562Z,0
2016-12-22T15:49:29.495Z,0
2016-12-22T15:50:39.424Z,0
2016-12-22T15:51:49.366Z,0
2016-12-22T15:52:58.996Z,0
2016-12-22T15:54:09.257Z,0
2016-12-22T15:55:19.191Z,0
2016-12-22T15:56:29.423Z,0
2016-12-22T15:57:38.782Z,0
2016-12-22T15:58:49.011Z,0
2016-12-22T15:59:58.642Z,0
2016-12-22T16:01:08.896Z,0
2016-12-22T16:02:19.183Z,0
2016-12-22T16:03:29.477Z,0
2016-12-22T16:04:39.763Z,0
2016-12-22T16:05:49.730Z,0
2016-12-22T16:07:00.008Z,0
2016-12-22T16:08:09.969Z,0
2016-12-22T16:09:19.928Z,0
2016-12-22T16:10:29.886Z,0
2016-12-22T16:11:39.553Z,0
2016-12-22T16:12:49.830Z,0
2016-12-22T16:14:00.101Z,0
2016-12-22T16:15:09.755Z,0
2016-12-22T16:16:20.033Z,0
2016-12-22T16:17:30.325Z,0
2016-12-22T16:18:40.277Z,0
2016-12-22T16:19:50.507Z,0
2016-12-22T16:21:00.140Z,0
2016-12-22T16:22:10.374Z,0
2016-12-22T16:23:19.999Z,0
2016-12-22T16:24:29.972Z,0
2016-12-22T16:25:39.950Z,0
2016-12-22T16:26:49.921Z,0
2016-12-22T16:28:00.228Z,0
2016-12-22T16:29:09.585Z,0
2016-12-22T16:30:19.235Z,0
2016-12-22T16:31:29.223Z,0
2016-12-22T16:32:39.489Z,0
2016-12-22T16:33:49.460Z,0
2016-12-22T16:34:59.095Z,0
2016-12-22T16:36:09.351Z,0
2016-12-22T16:37:19.306Z,0
2016-12-22T16:38:29.594Z,0
2016-12-22T16:39:39.558Z,0
2016-12-22T16:40:49.834Z,0
2016-12-22T16:41:59.184Z,0
2016-12-22T16:43:09.149Z,0
2016-12-22T16:44:19.418Z,0
2016-12-22T16:45:29.699Z,0
2016-12-22T16:46:39.966Z,0
2016-12-22T16:47:50.253Z,0
2016-12-22T16:49:00.224Z,0
2016-12-22T16:50:10.184Z,0
2016-12-22T16:51:20.142Z,0
2016-12-22T16:52:30.115Z,0
2016-12-22T16:53:40.631Z,0
2016-12-22T16:54:50.603Z,0
2016-12-22T16:56:00.564Z,0
2016-12-22T16:57:10.547Z,0
2016-12-22T16:58:20.851Z,0
2016-12-22T16:59:31.142Z,0
2016-12-22T17:00:41.104Z,0
2016-12-22T17:01:51.065Z,0
2016-12-22T17:03:01.347Z,0
2016-12-22T17:04:11.331Z,0